Patricia Ann — WDE2845 — position and weather

sailwx.info

Track history (hours):
 
Tides and Currents Weather Stations Pressure Air Temp Water Temp Dewpoint Dewpoint Depression Visibility Wind Speed Wind Dir Waves Ship Positions

Patricia Ann

Owner: AmNav Maritime Services, Oakland, CA. More information available from US FCC via Universal Licensing System and Coast Guard Vessel Documentation Center.

Last reported at 2015-Jul-05 18:03 UTC. Time now 2015-Jul-07 04:39 UTC.
Position N 38°02' W 121°52'.

Length 24 m; draft 4.9 m.

Type: Tug. MMSI: 367330510.

Date/timePositionNaut miles runAvg speedWind from/ knotsBaromVisibWave heightAir tempDewpointWater temp
2015-Jul-05 18:03N 38°02' W 121°52'2 3.6
2015-Jul-05 17:24N 38°03' W 121°55'21 1.0
2015-Jul-04 19:20N 38°02' W 122°22'810.1
2015-Jul-04 18:34N 37°54' W 122°25'7 6.8
2015-Jul-04 17:34N 37°49' W 122°19'1 0.6
2015-Jul-04 16:33N 37°49' W 122°19'3 2.6
2015-Jul-04 15:34N 37°47' W 122°22'0 0.2
2015-Jul-04 14:33N 37°47' W 122°22'2 2.1
2015-Jul-04 13:34N 37°49' W 122°20'1 1.1
2015-Jul-04 12:34N 37°49' W 122°19'0 0.0
2015-Jul-04 11:33N 37°49' W 122°19'0 0.0
2015-Jul-04 10:34N 37°49' W 122°19'0 0.0
2015-Jul-04 09:34N 37°49' W 122°19'0 0.0
2015-Jul-04 08:34N 37°49' W 122°19'0 0.0
2015-Jul-04 07:34N 37°49' W 122°19'0 0.0
2015-Jul-04 06:34N 37°49' W 122°19'0 0.0
2015-Jul-04 05:33N 37°49' W 122°19'0 0.1
2015-Jul-04 01:19N 37°49' W 122°19'0 0.2
2015-Jul-04 00:33N 37°49' W 122°19'0 0.0
2015-Jul-03 23:33N 37°49' W 122°19'0 0.3
2015-Jul-03 22:34N 37°49' W 122°19'1 0.7
2015-Jul-03 21:33N 37°49' W 122°19'0 0.0
2015-Jul-03 20:34N 37°49' W 122°19'0 0.0
2015-Jul-03 19:34N 37°49' W 122°19'0 0.0
2015-Jul-03 18:33N 37°49' W 122°19'0 0.0
2015-Jul-03 17:34N 37°49' W 122°19'0 0.0
2015-Jul-03 16:34N 37°49' W 122°19'0 0.0
2015-Jul-03 15:33N 37°49' W 122°19'0 0.0
2015-Jul-03 14:34N 37°49' W 122°19'1 0.8
2015-Jul-03 13:34N 37°49' W 122°19'2 1.8
2015-Jul-03 12:34N 37°48' W 122°21'1 0.8
2015-Jul-03 11:34N 37°48' W 122°21'1 0.8
2015-Jul-03 10:34N 37°49' W 122°20'1 0.8
2015-Jul-03 09:33N 37°49' W 122°19'0 0.1
2015-Jul-03 08:34N 37°49' W 122°19'0 0.0
2015-Jul-03 07:34N 37°49' W 122°19'0 0.0
2015-Jul-03 06:33N 37°49' W 122°19'0 0.0
2015-Jul-03 05:34N 37°49' W 122°19'0 0.0
2015-Jul-03 04:34N 37°49' W 122°19'0 0.0
2015-Jul-03 03:34N 37°49' W 122°19'0 0.0
2015-Jul-03 02:34N 37°49' W 122°19'0 0.3
2015-Jul-03 01:34N 37°49' W 122°19'3 2.7
2015-Jul-03 00:33N 37°48' W 122°22'1 1.3
2015-Jul-02 23:33N 37°48' W 122°21'0 0.1
2015-Jul-02 22:33N 37°48' W 122°21'1 0.7
2015-Jul-02 21:33N 37°48' W 122°21'2 2.4
2015-Jul-02 20:33N 37°49' W 122°19'0 0.0
2015-Jul-02 19:34N 37°49' W 122°19'0 0.0
2015-Jul-02 18:33N 37°49' W 122°19'0 0.0
2015-Jul-02 17:34N 37°49' W 122°19'0 0.0
2015-Jul-02 16:34N 37°49' W 122°19'0 0.0
2015-Jul-02 15:33N 37°49' W 122°19'0 0.0
2015-Jul-02 14:34N 37°49' W 122°19'1 0.7
2015-Jul-02 13:34N 37°49' W 122°19'1 0.7
2015-Jul-02 12:33N 37°49' W 122°20'0 0.0
2015-Jul-02 11:33N 37°49' W 122°20'1 0.6
2015-Jul-02 10:34N 37°49' W 122°20'1 0.8
2015-Jul-02 09:34N 37°49' W 122°19'0 0.0
2015-Jul-02 08:34N 37°49' W 122°19'0 0.0
2015-Jul-02 07:33N 37°49' W 122°19'0 0.0
2015-Jul-02 06:34N 37°49' W 122°19'0 0.0
2015-Jul-02 05:34N 37°49' W 122°19'0 0.0
2015-Jul-02 04:34N 37°49' W 122°19'0 0.0
2015-Jul-02 03:33N 37°49' W 122°19'1 0.5
2015-Jul-02 02:34N 37°49' W 122°19'1 0.5
2015-Jul-02 01:33N 37°49' W 122°19'0 0.0
2015-Jul-02 00:33N 37°49' W 122°19'0 0.0
2015-Jul-01 23:33N 37°49' W 122°19'0 0.0
2015-Jul-01 22:33N 37°49' W 122°19'2 1.5
2015-Jul-01 21:34N 37°49' W 122°20'1 0.9
2015-Jul-01 20:33N 37°48' W 122°21'1 0.8
2015-Jul-01 19:34N 37°48' W 122°20'2 2.2
2015-Jul-01 18:33N 37°48' W 122°18'1 0.7
2015-Jul-01 17:33N 37°48' W 122°17'1 1.2
2015-Jul-01 16:33N 37°48' W 122°18'2 1.8
2015-Jul-01 15:34N 37°49' W 122°19'0 0.0
2015-Jul-01 14:34N 37°49' W 122°19'0 0.0
2015-Jul-01 13:33N 37°49' W 122°19'0 0.0
2015-Jul-01 12:34N 37°49' W 122°19'0 0.0
2015-Jul-01 11:33N 37°49' W 122°19'0 0.0
2015-Jul-01 10:34N 37°49' W 122°19'0 0.0
2015-Jul-01 09:34N 37°49' W 122°19'0 0.0
2015-Jul-01 08:33N 37°49' W 122°19'0 0.0
2015-Jul-01 07:34N 37°49' W 122°19'0 0.0
2015-Jul-01 06:33N 37°49' W 122°19'0 0.0
2015-Jul-01 05:34N 37°49' W 122°19'0 0.0
2015-Jul-01 04:34N 37°49' W 122°19'0 0.0
2015-Jul-01 03:34N 37°49' W 122°19'0 0.0
2015-Jul-01 02:33N 37°49' W 122°19'0 0.0
2015-Jul-01 01:34N 37°49' W 122°19'2 1.9
2015-Jul-01 00:33N 37°48' W 122°18'1 0.6
2015-Jun-30 23:33N 37°48' W 122°19'1 0.8
2015-Jun-30 22:33N 37°48' W 122°20'1 0.9
2015-Jun-30 21:33N 37°48' W 122°21'4 4.5
2015-Jun-30 20:34N 37°52' W 122°24'4 3.6
2015-Jun-30 19:33N 37°55' W 122°25'3 2.7
2015-Jun-30 18:33N 37°53' W 122°25'6 5.5
2015-Jun-30 17:33N 37°49' W 122°20'1 0.9
2015-Jun-30 16:34N 37°49' W 122°19'0 0.0
2015-Jun-30 15:33N 37°49' W 122°19'0 0.0
2015-Jun-30 14:33N 37°49' W 122°19'0 0.0
2015-Jun-30 13:33N 37°49' W 122°19'1 1.4
2015-Jun-30 12:34N 37°49' W 122°20'2 1.9
2015-Jun-30 11:34N 37°47' W 122°22'3 3.2
2015-Jun-30 10:34N 37°49' W 122°19'0 0.0
2015-Jun-30 09:34N 37°49' W 122°19'0 0.0
2015-Jun-30 08:34N 37°49' W 122°19'0 0.0
2015-Jun-30 07:34N 37°49' W 122°19'0 0.0
2015-Jun-30 06:33N 37°49' W 122°19'0 0.0
2015-Jun-30 05:33N 37°49' W 122°19'0 0.0
2015-Jun-30 04:34N 37°49' W 122°19'2 2.3
2015-Jun-30 03:34N 37°48' W 122°21'2 2.3
2015-Jun-30 02:33N 37°49' W 122°19'0 0.0
2015-Jun-30 01:33N 37°49' W 122°19'0 0.0
2015-Jun-30 00:34N 37°49' W 122°19'3 2.6
2015-Jun-29 23:33N 37°50' W 122°22'5 5.0
2015-Jun-29 22:33N 37°55' W 122°22'1 0.8
2015-Jun-29 21:33N 37°54' W 122°23'2 2.5
2015-Jun-29 20:33N 37°55' W 122°25'1 0.6
2015-Jun-29 19:32N 37°56' W 122°25'2 2.3
2015-Jun-29 18:34N 37°55' W 122°22'2 1.9
2015-Jun-29 17:33N 37°54' W 122°24'7 6.8
2015-Jun-29 16:33N 37°49' W 122°19'0 0.0
2015-Jun-29 15:33N 37°49' W 122°19'0 0.0
2015-Jun-29 14:33N 37°49' W 122°19'0 0.0
2015-Jun-29 13:34N 37°49' W 122°19'0 0.0
2015-Jun-29 12:34N 37°49' W 122°19'0 0.0
2015-Jun-29 11:33N 37°49' W 122°19'0 0.0
2015-Jun-29 10:33N 37°49' W 122°19'0 0.0
2015-Jun-29 09:33N 37°49' W 122°19'1 1.3
2015-Jun-29 08:33N 37°49' W 122°20'1 1.2
2015-Jun-29 07:33N 37°49' W 122°19'0 0.0
2015-Jun-29 06:34N 37°49' W 122°19'0 0.0
2015-Jun-29 05:34N 37°49' W 122°19'0 0.0
2015-Jun-29 04:33N 37°49' W 122°19'0 0.0
2015-Jun-29 03:34N 37°49' W 122°19'0 0.0
2015-Jun-29 02:33N 37°49' W 122°19'0 0.0
2015-Jun-29 01:33N 37°49' W 122°19'0 0.0
2015-Jun-29 00:33N 37°49' W 122°19'0 0.0
2015-Jun-28 23:33N 37°49' W 122°19'0 0.0
2015-Jun-28 22:34N 37°49' W 122°19'0 0.0
2015-Jun-28 21:33N 37°49' W 122°19'0 0.0
2015-Jun-28 20:33N 37°49' W 122°19'0 0.0
2015-Jun-28 19:33N 37°49' W 122°19'0 0.0
2015-Jun-28 18:33N 37°49' W 122°19'0 0.0
2015-Jun-28 17:33N 37°49' W 122°19'0 0.0
2015-Jun-28 16:33N 37°49' W 122°19'0 0.0
2015-Jun-28 15:33N 37°49' W 122°19'0 0.0
2015-Jun-28 14:33N 37°49' W 122°19'1 1.1
2015-Jun-28 13:33N 37°49' W 122°20'1 1.4
2015-Jun-28 12:33N 37°48' W 122°21'1 0.8
2015-Jun-28 11:33N 37°48' W 122°21'1 1.1
2015-Jun-28 10:33N 37°48' W 122°19'1 1.1
2015-Jun-28 09:33N 37°48' W 122°20'2 1.5
2015-Jun-28 08:33N 37°49' W 122°19'0 0.0
2015-Jun-28 07:33N 37°49' W 122°19'0 0.0
2015-Jun-28 06:34N 37°49' W 122°19'0 0.0
2015-Jun-28 05:34N 37°49' W 122°19'0 0.0
2015-Jun-28 04:34N 37°49' W 122°19'1 0.7
2015-Jun-28 03:34N 37°49' W 122°19'1 0.7
2015-Jun-28 02:34N 37°49' W 122°20'0 0.1
2015-Jun-28 01:33N 37°49' W 122°20'1 1.3
2015-Jun-28 00:33N 37°49' W 122°19'0 0.3
2015-Jun-27 23:33N 37°49' W 122°19'3 2.7
2015-Jun-27 22:33N 37°48' W 122°22'3 2.9
2015-Jun-27 21:34N 37°49' W 122°19'0 0.0
2015-Jun-27 20:33N 37°49' W 122°19'0 0.0
2015-Jun-27 19:33N 37°49' W 122°19'0 0.0
2015-Jun-27 18:34N 37°49' W 122°19'0 0.0
2015-Jun-27 17:33N 37°49' W 122°19'0 0.0
2015-Jun-27 16:34N 37°49' W 122°19'0 0.0
2015-Jun-27 15:33N 37°49' W 122°19'0 0.0
2015-Jun-27 14:34N 37°49' W 122°19'0 0.0
2015-Jun-27 13:33N 37°49' W 122°19'0 0.0
2015-Jun-27 12:33N 37°49' W 122°19'0 0.0
2015-Jun-27 11:33N 37°49' W 122°19'1 0.5
2015-Jun-27 10:34N 37°49' W 122°19'0 0.2
2015-Jun-27 09:34N 37°49' W 122°19'1 0.6
2015-Jun-27 08:33N 37°49' W 122°20'0 0.0
2015-Jun-27 07:33N 37°49' W 122°20'0 0.0
2015-Jun-27 06:33N 37°49' W 122°20'0 0.0
2015-Jun-27 05:33N 37°49' W 122°20'7 6.7
2015-Jun-27 04:33N 37°55' W 122°24'2 1.8
2015-Jun-27 03:33N 37°55' W 122°22'0 0.4
2015-Jun-27 02:33N 37°55' W 122°22'0 0.0
2015-Jun-27 01:34N 37°55' W 122°22'3 2.7
2015-Jun-27 00:33N 37°56' W 122°25'8 8.0
2015-Jun-26 23:33N 37°49' W 122°19'3 2.8
2015-Jun-26 22:34N 37°48' W 122°22'3 2.9
2015-Jun-26 21:33N 37°49' W 122°19'0 0.3
2015-Jun-26 20:34N 37°49' W 122°19'0 0.3
2015-Jun-26 19:34N 37°49' W 122°19'0 0.0
2015-Jun-26 18:34N 37°49' W 122°19'0 0.0
2015-Jun-26 17:34N 37°49' W 122°19'0 0.0
2015-Jun-26 16:34N 37°49' W 122°19'0 0.0
2015-Jun-26 15:34N 37°49' W 122°19'0 0.0
2015-Jun-26 14:34N 37°49' W 122°19'0 0.0
2015-Jun-26 13:33N 37°49' W 122°19'0 0.0
2015-Jun-26 12:33N 37°49' W 122°19'0 0.0
2015-Jun-26 11:33N 37°49' W 122°19'0 0.0
2015-Jun-26 10:34N 37°49' W 122°19'0 0.0
2015-Jun-26 09:33N 37°49' W 122°19'0 0.0
2015-Jun-26 08:33N 37°49' W 122°19'0 0.0
2015-Jun-26 07:33N 37°49' W 122°19'0 0.0
2015-Jun-26 06:33N 37°49' W 122°19'0 0.0
2015-Jun-26 05:33N 37°49' W 122°19'0 0.0
2015-Jun-26 04:34N 37°49' W 122°19'0 0.0
2015-Jun-26 03:34N 37°49' W 122°19'0 0.0
2015-Jun-26 02:33N 37°49' W 122°19'0 0.0
2015-Jun-26 01:34N 37°49' W 122°19'1 0.9
2015-Jun-26 00:34N 37°49' W 122°19'1 0.6
2015-Jun-25 23:34N 37°49' W 122°19'0 0.3
2015-Jun-25 22:34N 37°49' W 122°19'0 0.0
2015-Jun-25 21:34N 37°49' W 122°19'0 0.0
2015-Jun-25 20:34N 37°49' W 122°19'0 0.0
2015-Jun-25 19:33N 37°49' W 122°19'0 0.0
2015-Jun-25 18:33N 37°49' W 122°19'  
Track history (hours):
 
Tides and Currents Weather Stations Pressure Air Temp Water Temp Dewpoint Dewpoint Depression Visibility Wind Speed Wind Dir Waves Ship Positions

Patricia Ann

Owner: AmNav Maritime Services, Oakland, CA. More information available from US FCC via Universal Licensing System and Coast Guard Vessel Documentation Center.

Last reported at 2015-Jul-05 18:03 UTC. Time now 2015-Jul-07 04:39 UTC.
Position N 38°02' W 121°52'.

Length 24 m; draft 4.9 m.

Type: Tug. MMSI: 367330510.

Date/timePositionNaut miles runAvg speedWind from/ knotsBaromVisibWave heightAir tempDewpointWater temp
2015-Jul-05 18:03N 38°02' W 121°52'2 3.6
2015-Jul-05 17:24N 38°03' W 121°55'21 1.0
2015-Jul-04 19:20N 38°02' W 122°22'810.1
2015-Jul-04 18:34N 37°54' W 122°25'7 6.8
2015-Jul-04 17:34N 37°49' W 122°19'1 0.6
2015-Jul-04 16:33N 37°49' W 122°19'3 2.6
2015-Jul-04 15:34N 37°47' W 122°22'0 0.2
2015-Jul-04 14:33N 37°47' W 122°22'2 2.1
2015-Jul-04 13:34N 37°49' W 122°20'1 1.1
2015-Jul-04 12:34N 37°49' W 122°19'0 0.0
2015-Jul-04 11:33N 37°49' W 122°19'0 0.0
2015-Jul-04 10:34N 37°49' W 122°19'0 0.0
2015-Jul-04 09:34N 37°49' W 122°19'0 0.0
2015-Jul-04 08:34N 37°49' W 122°19'0 0.0
2015-Jul-04 07:34N 37°49' W 122°19'0 0.0
2015-Jul-04 06:34N 37°49' W 122°19'0 0.0
2015-Jul-04 05:33N 37°49' W 122°19'0 0.1
2015-Jul-04 01:19N 37°49' W 122°19'0 0.2
2015-Jul-04 00:33N 37°49' W 122°19'0 0.0
2015-Jul-03 23:33N 37°49' W 122°19'0 0.3
2015-Jul-03 22:34N 37°49' W 122°19'1 0.7
2015-Jul-03 21:33N 37°49' W 122°19'0 0.0
2015-Jul-03 20:34N 37°49' W 122°19'0 0.0
2015-Jul-03 19:34N 37°49' W 122°19'0 0.0
2015-Jul-03 18:33N 37°49' W 122°19'0 0.0
2015-Jul-03 17:34N 37°49' W 122°19'0 0.0
2015-Jul-03 16:34N 37°49' W 122°19'0 0.0
2015-Jul-03 15:33N 37°49' W 122°19'0 0.0
2015-Jul-03 14:34N 37°49' W 122°19'1 0.8
2015-Jul-03 13:34N 37°49' W 122°19'2 1.8
2015-Jul-03 12:34N 37°48' W 122°21'1 0.8
2015-Jul-03 11:34N 37°48' W 122°21'1 0.8
2015-Jul-03 10:34N 37°49' W 122°20'1 0.8
2015-Jul-03 09:33N 37°49' W 122°19'0 0.1
2015-Jul-03 08:34N 37°49' W 122°19'0 0.0
2015-Jul-03 07:34N 37°49' W 122°19'0 0.0
2015-Jul-03 06:33N 37°49' W 122°19'0 0.0
2015-Jul-03 05:34N 37°49' W 122°19'0 0.0
2015-Jul-03 04:34N 37°49' W 122°19'0 0.0
2015-Jul-03 03:34N 37°49' W 122°19'0 0.0
2015-Jul-03 02:34N 37°49' W 122°19'0 0.3
2015-Jul-03 01:34N 37°49' W 122°19'3 2.7
2015-Jul-03 00:33N 37°48' W 122°22'1 1.3
2015-Jul-02 23:33N 37°48' W 122°21'0 0.1
2015-Jul-02 22:33N 37°48' W 122°21'1 0.7
2015-Jul-02 21:33N 37°48' W 122°21'2 2.4
2015-Jul-02 20:33N 37°49' W 122°19'0 0.0
2015-Jul-02 19:34N 37°49' W 122°19'0 0.0
2015-Jul-02 18:33N 37°49' W 122°19'0 0.0
2015-Jul-02 17:34N 37°49' W 122°19'0 0.0
2015-Jul-02 16:34N 37°49' W 122°19'0 0.0
2015-Jul-02 15:33N 37°49' W 122°19'0 0.0
2015-Jul-02 14:34N 37°49' W 122°19'1 0.7
2015-Jul-02 13:34N 37°49' W 122°19'1 0.7
2015-Jul-02 12:33N 37°49' W 122°20'0 0.0
2015-Jul-02 11:33N 37°49' W 122°20'1 0.6
2015-Jul-02 10:34N 37°49' W 122°20'1 0.8
2015-Jul-02 09:34N 37°49' W 122°19'0 0.0
2015-Jul-02 08:34N 37°49' W 122°19'0 0.0
2015-Jul-02 07:33N 37°49' W 122°19'0 0.0
2015-Jul-02 06:34N 37°49' W 122°19'0 0.0
2015-Jul-02 05:34N 37°49' W 122°19'0 0.0
2015-Jul-02 04:34N 37°49' W 122°19'0 0.0
2015-Jul-02 03:33N 37°49' W 122°19'1 0.5
2015-Jul-02 02:34N 37°49' W 122°19'1 0.5
2015-Jul-02 01:33N 37°49' W 122°19'0 0.0
2015-Jul-02 00:33N 37°49' W 122°19'0 0.0
2015-Jul-01 23:33N 37°49' W 122°19'0 0.0
2015-Jul-01 22:33N 37°49' W 122°19'2 1.5
2015-Jul-01 21:34N 37°49' W 122°20'1 0.9
2015-Jul-01 20:33N 37°48' W 122°21'1 0.8
2015-Jul-01 19:34N 37°48' W 122°20'2 2.2
2015-Jul-01 18:33N 37°48' W 122°18'1 0.7
2015-Jul-01 17:33N 37°48' W 122°17'1 1.2
2015-Jul-01 16:33N 37°48' W 122°18'2 1.8
2015-Jul-01 15:34N 37°49' W 122°19'0 0.0
2015-Jul-01 14:34N 37°49' W 122°19'0 0.0
2015-Jul-01 13:33N 37°49' W 122°19'0 0.0
2015-Jul-01 12:34N 37°49' W 122°19'0 0.0
2015-Jul-01 11:33N 37°49' W 122°19'0 0.0
2015-Jul-01 10:34N 37°49' W 122°19'0 0.0
2015-Jul-01 09:34N 37°49' W 122°19'0 0.0
2015-Jul-01 08:33N 37°49' W 122°19'0 0.0
2015-Jul-01 07:34N 37°49' W 122°19'0 0.0
2015-Jul-01 06:33N 37°49' W 122°19'0 0.0
2015-Jul-01 05:34N 37°49' W 122°19'0 0.0
2015-Jul-01 04:34N 37°49' W 122°19'0 0.0
2015-Jul-01 03:34N 37°49' W 122°19'0 0.0
2015-Jul-01 02:33N 37°49' W 122°19'0 0.0
2015-Jul-01 01:34N 37°49' W 122°19'2 1.9
2015-Jul-01 00:33N 37°48' W 122°18'1 0.6
2015-Jun-30 23:33N 37°48' W 122°19'1 0.8
2015-Jun-30 22:33N 37°48' W 122°20'1 0.9
2015-Jun-30 21:33N 37°48' W 122°21'4 4.5
2015-Jun-30 20:34N 37°52' W 122°24'4 3.6
2015-Jun-30 19:33N 37°55' W 122°25'3 2.7
2015-Jun-30 18:33N 37°53' W 122°25'6 5.5
2015-Jun-30 17:33N 37°49' W 122°20'1 0.9
2015-Jun-30 16:34N 37°49' W 122°19'0 0.0
2015-Jun-30 15:33N 37°49' W 122°19'0 0.0
2015-Jun-30 14:33N 37°49' W 122°19'0 0.0
2015-Jun-30 13:33N 37°49' W 122°19'1 1.4
2015-Jun-30 12:34N 37°49' W 122°20'2 1.9
2015-Jun-30 11:34N 37°47' W 122°22'3 3.2
2015-Jun-30 10:34N 37°49' W 122°19'0 0.0
2015-Jun-30 09:34N 37°49' W 122°19'0 0.0
2015-Jun-30 08:34N 37°49' W 122°19'0 0.0
2015-Jun-30 07:34N 37°49' W 122°19'0 0.0
2015-Jun-30 06:33N 37°49' W 122°19'0 0.0
2015-Jun-30 05:33N 37°49' W 122°19'0 0.0
2015-Jun-30 04:34N 37°49' W 122°19'2 2.3
2015-Jun-30 03:34N 37°48' W 122°21'2 2.3
2015-Jun-30 02:33N 37°49' W 122°19'0 0.0
2015-Jun-30 01:33N 37°49' W 122°19'0 0.0
2015-Jun-30 00:34N 37°49' W 122°19'3 2.6
2015-Jun-29 23:33N 37°50' W 122°22'5 5.0
2015-Jun-29 22:33N 37°55' W 122°22'1 0.8
2015-Jun-29 21:33N 37°54' W 122°23'2 2.5
2015-Jun-29 20:33N 37°55' W 122°25'1 0.6
2015-Jun-29 19:32N 37°56' W 122°25'2 2.3
2015-Jun-29 18:34N 37°55' W 122°22'2 1.9
2015-Jun-29 17:33N 37°54' W 122°24'7 6.8
2015-Jun-29 16:33N 37°49' W 122°19'0 0.0
2015-Jun-29 15:33N 37°49' W 122°19'0 0.0
2015-Jun-29 14:33N 37°49' W 122°19'0 0.0
2015-Jun-29 13:34N 37°49' W 122°19'0 0.0
2015-Jun-29 12:34N 37°49' W 122°19'0 0.0
2015-Jun-29 11:33N 37°49' W 122°19'0 0.0
2015-Jun-29 10:33N 37°49' W 122°19'0 0.0
2015-Jun-29 09:33N 37°49' W 122°19'1 1.3
2015-Jun-29 08:33N 37°49' W 122°20'1 1.2
2015-Jun-29 07:33N 37°49' W 122°19'0 0.0
2015-Jun-29 06:34N 37°49' W 122°19'0 0.0
2015-Jun-29 05:34N 37°49' W 122°19'0 0.0
2015-Jun-29 04:33N 37°49' W 122°19'0 0.0
2015-Jun-29 03:34N 37°49' W 122°19'0 0.0
2015-Jun-29 02:33N 37°49' W 122°19'0 0.0
2015-Jun-29 01:33N 37°49' W 122°19'0 0.0
2015-Jun-29 00:33N 37°49' W 122°19'0 0.0
2015-Jun-28 23:33N 37°49' W 122°19'0 0.0
2015-Jun-28 22:34N 37°49' W 122°19'0 0.0
2015-Jun-28 21:33N 37°49' W 122°19'0 0.0
2015-Jun-28 20:33N 37°49' W 122°19'0 0.0
2015-Jun-28 19:33N 37°49' W 122°19'0 0.0
2015-Jun-28 18:33N 37°49' W 122°19'0 0.0
2015-Jun-28 17:33N 37°49' W 122°19'0 0.0
2015-Jun-28 16:33N 37°49' W 122°19'0 0.0
2015-Jun-28 15:33N 37°49' W 122°19'0 0.0
2015-Jun-28 14:33N 37°49' W 122°19'1 1.1
2015-Jun-28 13:33N 37°49' W 122°20'1 1.4
2015-Jun-28 12:33N 37°48' W 122°21'1 0.8
2015-Jun-28 11:33N 37°48' W 122°21'1 1.1
2015-Jun-28 10:33N 37°48' W 122°19'1 1.1
2015-Jun-28 09:33N 37°48' W 122°20'2 1.5
2015-Jun-28 08:33N 37°49' W 122°19'0 0.0
2015-Jun-28 07:33N 37°49' W 122°19'0 0.0
2015-Jun-28 06:34N 37°49' W 122°19'0 0.0
2015-Jun-28 05:34N 37°49' W 122°19'0 0.0
2015-Jun-28 04:34N 37°49' W 122°19'1 0.7
2015-Jun-28 03:34N 37°49' W 122°19'1 0.7
2015-Jun-28 02:34N 37°49' W 122°20'0 0.1
2015-Jun-28 01:33N 37°49' W 122°20'1 1.3
2015-Jun-28 00:33N 37°49' W 122°19'0 0.3
2015-Jun-27 23:33N 37°49' W 122°19'3 2.7
2015-Jun-27 22:33N 37°48' W 122°22'3 2.9
2015-Jun-27 21:34N 37°49' W 122°19'0 0.0
2015-Jun-27 20:33N 37°49' W 122°19'0 0.0
2015-Jun-27 19:33N 37°49' W 122°19'0 0.0
2015-Jun-27 18:34N 37°49' W 122°19'0 0.0
2015-Jun-27 17:33N 37°49' W 122°19'0 0.0
2015-Jun-27 16:34N 37°49' W 122°19'0 0.0
2015-Jun-27 15:33N 37°49' W 122°19'0 0.0
2015-Jun-27 14:34N 37°49' W 122°19'0 0.0
2015-Jun-27 13:33N 37°49' W 122°19'0 0.0
2015-Jun-27 12:33N 37°49' W 122°19'0 0.0
2015-Jun-27 11:33N 37°49' W 122°19'1 0.5
2015-Jun-27 10:34N 37°49' W 122°19'0 0.2
2015-Jun-27 09:34N 37°49' W 122°19'1 0.6
2015-Jun-27 08:33N 37°49' W 122°20'0 0.0
2015-Jun-27 07:33N 37°49' W 122°20'0 0.0
2015-Jun-27 06:33N 37°49' W 122°20'0 0.0
2015-Jun-27 05:33N 37°49' W 122°20'7 6.7
2015-Jun-27 04:33N 37°55' W 122°24'2 1.8
2015-Jun-27 03:33N 37°55' W 122°22'0 0.4
2015-Jun-27 02:33N 37°55' W 122°22'0 0.0
2015-Jun-27 01:34N 37°55' W 122°22'3 2.7
2015-Jun-27 00:33N 37°56' W 122°25'8 8.0
2015-Jun-26 23:33N 37°49' W 122°19'3 2.8
2015-Jun-26 22:34N 37°48' W 122°22'3 2.9
2015-Jun-26 21:33N 37°49' W 122°19'0 0.3
2015-Jun-26 20:34N 37°49' W 122°19'0 0.3
2015-Jun-26 19:34N 37°49' W 122°19'0 0.0
2015-Jun-26 18:34N 37°49' W 122°19'0 0.0
2015-Jun-26 17:34N 37°49' W 122°19'0 0.0
2015-Jun-26 16:34N 37°49' W 122°19'0 0.0
2015-Jun-26 15:34N 37°49' W 122°19'0 0.0
2015-Jun-26 14:34N 37°49' W 122°19'0 0.0
2015-Jun-26 13:33N 37°49' W 122°19'0 0.0
2015-Jun-26 12:33N 37°49' W 122°19'0 0.0
2015-Jun-26 11:33N 37°49' W 122°19'0 0.0
2015-Jun-26 10:34N 37°49' W 122°19'0 0.0
2015-Jun-26 09:33N 37°49' W 122°19'0 0.0
2015-Jun-26 08:33N 37°49' W 122°19'0 0.0
2015-Jun-26 07:33N 37°49' W 122°19'0 0.0
2015-Jun-26 06:33N 37°49' W 122°19'0 0.0
2015-Jun-26 05:33N 37°49' W 122°19'0 0.0
2015-Jun-26 04:34N 37°49' W 122°19'0 0.0
2015-Jun-26 03:34N 37°49' W 122°19'0 0.0
2015-Jun-26 02:33N 37°49' W 122°19'0 0.0
2015-Jun-26 01:34N 37°49' W 122°19'1 0.9
2015-Jun-26 00:34N 37°49' W 122°19'1 0.6
2015-Jun-25 23:34N 37°49' W 122°19'0 0.3
2015-Jun-25 22:34N 37°49' W 122°19'0 0.0
2015-Jun-25 21:34N 37°49' W 122°19'0 0.0
2015-Jun-25 20:34N 37°49' W 122°19'0 0.0
2015-Jun-25 19:33N 37°49' W 122°19'0 0.0
2015-Jun-25 18:33N 37°49' W 122°19'  

Dump ship's entire track history